Hlavní strana
METAR-TAF:

METAR-TAF

Letiště :

Letiště Moskva-Šeremeťjevo

Moskva-Šeremetěvo, Rusko

zeměpisná šířka: 55-58N, zeměpisná délka: 037-25E, výška: 190 m

Aktuální stav počasí

Zpráva byla vytvořena před 13 minutami, v 05:00 UTC
Západní vítr 10 kt
Teplota 13°C
Vlhkost vzduchu 77%
Tlak 1012 hPa
Viditelnost 10 km a více
Skoro jasno ve výšce 1600 ft

METAR: UUEE 220500Z 28005MPS 9999 FEW016 13/09 Q1012 R24C/CLRD62 R24L/CLRD62 NOSIG

Čas: 08:13 (05:13 UTC)

Předpověď počasí

Zpráva byla vytvořena před 3 hodinami a 13 minutami, v 02:00 UTC
Předpověď platná od 22 v 03 UTC do 23 v 03 UTC
Západní vítr 10 kt
Viditelnost 10 km a více
Oblačno až skoro zataženo ve výšce 1500 ft

TAF: UUEE 220200Z 2203/2303 28005MPS 9999 BKN015 TX19/2209Z TN11/2203Z

Stav a předpovědi počasí z více než 4 000 letišť (zprávy METAR a TAF).

Červené a žluté tečky na mapě představují dostupné meteorologické stanice.

Když kurzor umístíte na tečku, zobrazí se název stanice.

Pak kliknutím zobrazíte stav a předpověď počasí.

Chcete-li změnit mapu, kliknutím na zelené tlačítko se znaménkem +mapu přiblížíte, kliknutím na zelené tlačítko se znaménkem – mapu oddálíte a kliknutím na zelené šipky přejdete na sousední mapy.


METAR-TAF: